メインページ
METAR-TAF:

METAR-TAF

空港 :

Whitecourt, アルバータ州, カナダ

緯度: 54-09N, 経度: 115-47W, 海抜: 783m

現時点の気象観測

当レポートは1時間22分前の05:00(UTC)に作成
北西の風 9kt
気温 -7°C
湿度 86%
気圧 1007 hPa
視程: 24.1km
高度6000ftの千切れ雲あり

METAR: CYZU 150500Z 31009KT 15SM BKN060 M07/M09 A2973 RMK SC7 FROIN LAST STFD OBS/NXT 151300Z SLP122

時間: 23:22 (06:22 UTC)

予報

当レポートは11時間44分前の18:38(UTC)に作成
予報は14日の 19時(UTC)から 14日の 23時(UTC)まで有効
西/北西の風 7kt
視程: 10km
高度6000ftの千切れ雲あり
14日の 2100時(UTC)から
西/北西の風 10kt
視程: 10km
晴天

TAF: CYZU 141838Z 1419/1423 30007KT P6SM BKN060 FM142100 30010KT P6SM SKC RMK NXT FCST WILL BE ISSUED AT 151415Z

4,000以上の空港の気象観測と天気予報(METAR報とTAF報)

利用可能な観測所は地図上に黄色い丸と赤い丸で示す。

丸の上にカーソルを重ねると観測所名を参照できる。

次にクリックすると気象観測と天気予報を参照できる。

マップの切り替え:黒色「×」印の緑ボタンをクリックして拡大、「-」印の緑ボタンをクリックして縮小、緑色の三角印をクリックして隣りの地図に切り替え


METAR-TAF: